This is the latest recevied weather packets stored in our database for station/object EA3HRE-13. If no packets are shown the sender has not sent any weather packets the latest 10 day(s).
| Time | Temp. | Humidity | Pressure | Rain* | Wind** | Luminosity | Snow |
|---|---|---|---|---|---|---|---|
| 1787861054 | 26.67° C | 100% | 1011 hPa | 0 mm | - | - | - |
| 1787860424 | 26.67° C | 100% | 1010.9 hPa | 0 mm | - | - | - |
| 1787859824 | 26.67° C | 100% | 1011 hPa | 0 mm | - | - | - |
| 1787859224 | 27.22° C | 100% | 1010.7 hPa | 0 mm | - | - | - |
| 1787858624 | 27.22° C | 100% | 1010.6 hPa | 0 mm | - | - | - |
| 1787857994 | 27.22° C | 100% | 1010.1 hPa | 0 mm | - | - | - |
| 1787857394 | 27.22° C | 100% | 1009.5 hPa | 0 mm | - | - | - |
| 1787856794 | 27.78° C | 100% | 1009.6 hPa | 0 mm | - | - | - |
| 1787856193 | 27.78° C | 100% | 1009.4 hPa | 0 mm | - | - | - |
| 1787855593 | 27.78° C | 100% | 1009.5 hPa | 0 mm | - | - | - |
| 1787854993 | 27.78° C | 100% | 1009.4 hPa | 0 mm | - | - | - |
| 1787854363 | 28.33° C | 100% | 1009.4 hPa | 0 mm | - | - | - |
| 1787853763 | 28.33° C | 100% | 1009.4 hPa | 0 mm | - | - | - |
| 1787853163 | 28.33° C | 100% | 1009.2 hPa | 0 mm | - | - | - |
| 1787852563 | 28.89° C | 100% | 1009.4 hPa | 0 mm | - | - | - |
| 1787851963 | 28.89° C | 100% | 1009.3 hPa | 0 mm | - | - | - |
| 1787851363 | 28.89° C | 100% | 1009.2 hPa | 0 mm | - | - | - |
| 1787850748 | 29.44° C | 100% | 1009.5 hPa | 0 mm | - | - | - |
| 1787850148 | 29.44° C | 100% | 1009.4 hPa | 0 mm | - | - | - |
| 1787849548 | 30° C | 100% | 1009.5 hPa | 0 mm | - | - | - |
| 1787848948 | 30.56° C | 100% | 1009.4 hPa | 0 mm | - | - | - |
| 1787848347 | 31.11° C | 100% | 1009.4 hPa | 0 mm | - | - | - |
| 1787847747 | 31.11° C | 100% | 1009.4 hPa | 0 mm | - | - | - |
| 1787847147 | 32.78° C | 100% | 1015.8 hPa | 0 mm | - | - | - |
| 1787846547 | 30.56° C | 100% | 1009.3 hPa | 0 mm | - | - | - |
* Rain latest hour (hover to see other rain measurements)
** Current wind speed in m/s (hover to see current wind gust speed)